LFMN/NCE METAR and TAF weather

Enter ICAO airport designator
Station Type Date Time Source
LFMN METAR 2020/01/19 14:30 UTC NOAA

LFMN 191430Z 36006KT 330V030 CAVOK 14/M03 Q1024 NOSIG


Station Type Date Time Source
LFMN Decoded METAR 2020/01/19 14:30 UTC NOAA

Nice, France (LFMN) 43-39N 007-12E 10M
Jan 19, 2020 - 09:30 AM EST / 2020.01.19 1430 UTC
Wind: from the N (360 degrees) at 7 MPH (6 KT) (direction variable):0
Visibility: greater than 7 mile(s):0
Temperature: 57 F (14 C)
Dew Point: 26 F (-3 C)
Relative Humidity: 30%
Pressure (altimeter): 30.24 in. Hg (1024 hPa)
ob: LFMN 191430Z 36006KT 330V030 CAVOK 14/M03 Q1024 NOSIG
cycle: 14

Station Type Date Time Source
LFMN TAF 2020/01/19 15:21 UTC NOAA

TAF LFMN 191400Z 1915/2021 09010KT CAVOK
BECMG 1916/1918 03010KT NSC
TEMPO 1918/2004 33010KT
BECMG 2004/2006 07020KT
TEMPO 2006/2012 07020G30KT
BECMG 2017/2019 05010KT

Example: see airport list